createdAt,value
2018-04-30T00:01:05.121Z,988.1
2018-04-30T00:01:46.191Z,988.06
2018-04-30T00:02:26.453Z,988.05
2018-04-30T00:03:06.861Z,988.02
2018-04-30T00:03:47.725Z,988.04
2018-04-30T00:04:28.376Z,988.01
2018-04-30T00:05:08.738Z,987.96
2018-04-30T00:05:49.230Z,987.92
2018-04-30T00:06:30.063Z,987.95
2018-04-30T00:07:10.575Z,987.91
2018-04-30T00:07:51.593Z,987.97
2018-04-30T00:08:32.178Z,987.92
2018-04-30T00:09:13.965Z,987.92
2018-04-30T00:09:54.368Z,987.96
2018-04-30T00:10:35.294Z,988.05
2018-04-30T00:11:15.895Z,988.02
2018-04-30T00:11:56.753Z,988.15
2018-04-30T00:12:37.268Z,988.14
2018-04-30T00:13:17.779Z,988.14
2018-04-30T00:13:59.950Z,988.17
2018-04-30T00:14:40.506Z,988.2
2018-04-30T00:15:20.901Z,988.26
2018-04-30T00:16:01.469Z,988.29
2018-04-30T00:16:41.888Z,988.37
2018-04-30T00:17:22.215Z,988.46
2018-04-30T00:18:02.743Z,988.56
2018-04-30T00:18:43.139Z,988.6
2018-04-30T00:19:23.522Z,988.75
2018-04-30T00:20:04.080Z,988.83
2018-04-30T00:20:44.484Z,988.81
2018-04-30T00:21:24.836Z,988.92
2018-04-30T00:22:05.809Z,988.97
2018-04-30T00:22:46.324Z,989.03
2018-04-30T00:23:26.950Z,988.98
2018-04-30T00:24:07.839Z,989.09
2018-04-30T00:24:48.770Z,989.08
2018-04-30T00:25:29.836Z,988.99
2018-04-30T00:26:10.090Z,988.96
2018-04-30T00:26:50.496Z,988.97
2018-04-30T00:27:31.190Z,988.96
2018-04-30T00:28:11.643Z,988.9
2018-04-30T00:28:51.897Z,988.89
2018-04-30T00:29:32.331Z,988.82
2018-04-30T00:33:07.927Z,988.38
2018-04-30T00:33:48.610Z,988.34
2018-04-30T00:34:29.263Z,988.27
2018-04-30T00:35:09.704Z,988.16
2018-04-30T00:35:50.184Z,988.04
2018-04-30T00:36:30.920Z,987.95
2018-04-30T00:37:11.269Z,987.89
2018-04-30T00:37:51.774Z,987.79
2018-04-30T00:38:32.673Z,987.67
2018-04-30T00:39:12.937Z,987.69
2018-04-30T00:39:53.405Z,987.71
2018-04-30T00:40:33.711Z,987.77
2018-04-30T00:41:14.553Z,987.85
2018-04-30T00:41:54.731Z,987.95
2018-04-30T00:42:35.305Z,987.98
2018-04-30T00:43:17.560Z,988.01
2018-04-30T00:43:58.718Z,988.07
2018-04-30T00:44:39.212Z,988.05
2018-04-30T00:45:19.836Z,988.11
2018-04-30T00:46:00.235Z,988.12
2018-04-30T00:46:40.684Z,988.07
2018-04-30T00:47:21.107Z,988.05
2018-04-30T00:48:01.522Z,988.01
2018-04-30T00:48:41.952Z,988
2018-04-30T00:49:22.318Z,988.04
2018-04-30T00:50:02.706Z,988.09
2018-04-30T00:50:43.063Z,988.08
2018-04-30T00:51:23.417Z,988.12
2018-04-30T00:52:03.807Z,988.11
2018-04-30T00:52:44.240Z,988.17
2018-04-30T00:53:24.666Z,988.15
2018-04-30T00:54:05.023Z,988.15
2018-04-30T00:54:45.431Z,988.13
2018-04-30T00:55:25.826Z,988.11
2018-04-30T00:56:06.270Z,988.06
2018-04-30T00:56:46.691Z,988.07
2018-04-30T00:57:27.138Z,988.1
2018-04-30T00:58:07.476Z,988.06
2018-04-30T00:58:47.848Z,988.11
2018-04-30T00:59:28.235Z,988.14
2018-04-30T01:00:08.667Z,988.12
2018-04-30T01:00:49.099Z,988.15
2018-04-30T01:01:29.443Z,988.14
2018-04-30T01:02:09.910Z,988.14
2018-04-30T01:02:50.314Z,988.13
2018-04-30T01:03:30.744Z,988.06
2018-04-30T01:04:11.160Z,988.01
2018-04-30T01:04:51.591Z,988
2018-04-30T01:05:32.018Z,987.99
2018-04-30T01:06:12.391Z,987.98
2018-04-30T01:06:52.788Z,988
2018-04-30T01:07:33.192Z,988.02
2018-04-30T01:08:13.783Z,987.99
2018-04-30T01:08:54.217Z,988.04
2018-04-30T01:09:34.526Z,988.05
2018-04-30T01:10:14.906Z,988.08
2018-04-30T01:10:55.462Z,988.08
2018-04-30T01:11:35.970Z,988.07
2018-04-30T01:12:16.270Z,988.1
2018-04-30T01:12:56.672Z,988.08
2018-04-30T01:13:37.193Z,988.09
2018-04-30T01:14:17.550Z,988.08
2018-04-30T01:14:59.715Z,988.13
2018-04-30T01:15:40.835Z,988.16
2018-04-30T01:16:21.477Z,988.13
2018-04-30T01:17:07.880Z,988.12
2018-04-30T01:17:47.591Z,988.16
2018-04-30T01:18:29.300Z,988.14
2018-04-30T01:19:12.620Z,988.16
2018-04-30T01:24:22.878Z,988.1
2018-04-30T01:25:04.220Z,988.11
2018-04-30T01:25:44.619Z,988.14
2018-04-30T01:26:26.876Z,988.13
2018-04-30T01:27:07.951Z,988.13
2018-04-30T01:27:48.339Z,988.06
2018-04-30T01:28:28.778Z,988.1
2018-04-30T01:29:09.166Z,988.1
2018-04-30T01:29:49.500Z,988.08
2018-04-30T01:30:29.925Z,988.09
2018-04-30T01:31:10.428Z,988.05
2018-04-30T01:31:50.771Z,988.06
2018-04-30T01:32:31.197Z,988.08
2018-04-30T01:33:11.757Z,988.06
2018-04-30T01:33:52.817Z,988.08
2018-04-30T01:34:33.335Z,988.06
2018-04-30T01:35:13.912Z,988.06
2018-04-30T01:35:54.851Z,988.06
2018-04-30T01:36:37.198Z,988.01
2018-04-30T01:37:20.596Z,988.04
2018-04-30T01:38:00.817Z,988.03
2018-04-30T01:38:41.319Z,988.04
2018-04-30T01:39:22.515Z,988.05
2018-04-30T01:40:03.476Z,988.12
2018-04-30T01:42:03.880Z,988.11
2018-04-30T01:45:49.119Z,988.09
2018-04-30T01:46:36.352Z,988.08
2018-04-30T01:47:24.768Z,988.09
2018-04-30T02:03:13.983Z,988.26
2018-04-30T02:04:03.632Z,988.23
2018-04-30T02:04:46.802Z,988.24
2018-04-30T02:05:27.885Z,988.21
2018-04-30T02:06:08.432Z,988.19
2018-04-30T02:06:50.615Z,988.2
2018-04-30T02:07:29.524Z,988.16
2018-04-30T02:08:10.325Z,988.12
2018-04-30T02:08:50.769Z,988.08
2018-04-30T02:09:31.320Z,988.06
2018-04-30T02:10:13.032Z,988.01
2018-04-30T02:10:53.314Z,987.98
2018-04-30T02:11:36.387Z,987.95
2018-04-30T02:12:16.794Z,987.92
2018-04-30T02:12:58.779Z,987.91
2018-04-30T02:13:40.136Z,987.93
2018-04-30T02:14:21.454Z,987.95
2018-04-30T02:15:02.518Z,987.95
2018-04-30T02:15:42.891Z,987.99
2018-04-30T02:16:23.778Z,987.96
2018-04-30T02:17:04.349Z,988
2018-04-30T02:17:47.043Z,988
2018-04-30T02:18:27.583Z,988.01
2018-04-30T02:19:08.350Z,987.99
2018-04-30T02:19:50.299Z,988.04
2018-04-30T02:20:30.937Z,988
2018-04-30T02:21:11.702Z,987.94
2018-04-30T02:21:52.359Z,987.95
2018-04-30T02:22:33.579Z,987.91
2018-04-30T02:23:13.984Z,987.89
2018-04-30T02:23:55.000Z,987.87
2018-04-30T02:24:35.123Z,987.86
2018-04-30T02:25:16.382Z,987.86
2018-04-30T02:25:56.441Z,987.87
2018-04-30T02:26:36.920Z,987.86
2018-04-30T02:27:18.028Z,987.87
2018-04-30T02:27:58.371Z,987.93
2018-04-30T02:28:38.811Z,987.92
2018-04-30T02:29:19.247Z,987.9
2018-04-30T02:29:59.614Z,987.91
2018-04-30T02:30:40.216Z,987.9
2018-04-30T02:31:21.693Z,987.91
2018-04-30T02:32:05.636Z,987.86
2018-04-30T02:50:54.645Z,987.79
2018-04-30T02:51:36.848Z,987.8
2018-04-30T02:52:17.619Z,987.81
2018-04-30T02:52:57.987Z,987.79
2018-04-30T02:53:38.453Z,987.8
2018-04-30T02:54:19.457Z,987.82
2018-04-30T02:54:59.665Z,987.81
2018-04-30T02:55:50.602Z,987.87
2018-04-30T02:56:32.452Z,987.88
2018-04-30T02:57:16.846Z,987.92
2018-04-30T02:57:59.178Z,987.95
2018-04-30T02:58:40.635Z,987.92
2018-04-30T02:59:21.381Z,987.95
2018-04-30T03:00:04.438Z,987.97
2018-04-30T03:00:48.260Z,987.98
2018-04-30T03:01:29.122Z,987.91
2018-04-30T03:02:09.706Z,987.88
2018-04-30T03:02:51.461Z,987.88
2018-04-30T03:03:32.333Z,987.84
2018-04-30T03:04:12.737Z,987.84
2018-04-30T03:04:53.603Z,987.83
2018-04-30T03:05:34.262Z,987.86
2018-04-30T03:06:19.243Z,987.92
2018-04-30T03:07:00.408Z,987.94
2018-04-30T03:18:16.713Z,988.04
2018-04-30T03:40:35.658Z,988.41
2018-04-30T03:41:36.267Z,988.41
2018-04-30T03:43:37.289Z,988.46
2018-04-30T03:57:51.274Z,988.54
2018-04-30T03:58:34.780Z,988.59
2018-04-30T03:59:15.059Z,988.5
2018-04-30T03:59:55.862Z,988.51
2018-04-30T04:00:37.167Z,988.7
2018-04-30T04:01:18.402Z,988.53
2018-04-30T04:01:59.070Z,988.61
2018-04-30T04:02:39.530Z,988.6
2018-04-30T04:43:56.341Z,988.89
2018-04-30T04:44:44.320Z,988.86
2018-04-30T04:45:23.842Z,988.87
2018-04-30T04:46:04.852Z,988.88
2018-04-30T04:46:45.516Z,988.92
2018-04-30T04:47:25.868Z,988.9
2018-04-30T04:48:06.723Z,988.93
2018-04-30T04:48:47.316Z,988.98
2018-04-30T04:49:28.054Z,989
2018-04-30T04:50:08.420Z,989
2018-04-30T04:50:48.798Z,989.01
2018-04-30T04:51:29.051Z,988.98
2018-04-30T04:52:09.588Z,988.99
2018-04-30T04:52:50.026Z,989
2018-04-30T04:53:30.546Z,988.98
2018-04-30T04:54:11.107Z,988.98
2018-04-30T04:54:51.425Z,988.92
2018-04-30T04:55:32.074Z,988.96
2018-04-30T04:56:12.993Z,988.97
2018-04-30T04:56:53.413Z,988.95
2018-04-30T04:57:33.725Z,988.95
2018-04-30T04:58:14.185Z,988.98
2018-04-30T04:58:54.616Z,988.98
2018-04-30T04:59:35.090Z,988.98
2018-04-30T05:00:15.585Z,988.96
2018-04-30T05:00:56.094Z,988.87
2018-04-30T05:07:06.476Z,988.8
2018-04-30T05:07:58.633Z,988.82
2018-04-30T05:08:50.890Z,988.86
2018-04-30T05:12:28.030Z,988.97
2018-04-30T05:13:16.124Z,988.99
2018-04-30T05:13:55.214Z,988.99
2018-04-30T05:14:35.340Z,989.01
2018-04-30T05:15:15.793Z,989.02
2018-04-30T05:15:59.550Z,989.04
2018-04-30T05:16:37.564Z,989.03
2018-04-30T05:17:23.022Z,989.04
2018-04-30T05:18:05.014Z,989.09
2018-04-30T05:18:45.411Z,989.14
2018-04-30T05:19:26.688Z,989.11
2018-04-30T05:20:06.953Z,989.15
2018-04-30T05:20:49.765Z,989.21
2018-04-30T05:21:30.222Z,989.22
2018-04-30T05:22:12.083Z,989.23
2018-04-30T05:22:52.458Z,989.27
2018-04-30T05:23:32.728Z,989.28
2018-04-30T05:24:13.444Z,989.31
2018-04-30T05:24:53.683Z,989.31
2018-04-30T05:28:57.672Z,989.28
2018-04-30T05:29:38.368Z,989.27
2018-04-30T05:30:18.804Z,989.31
2018-04-30T05:30:59.283Z,989.34
2018-04-30T05:31:39.649Z,989.37
2018-04-30T05:32:20.068Z,989.36
2018-04-30T05:33:00.453Z,989.35
2018-04-30T05:33:41.312Z,989.33
2018-04-30T05:34:22.030Z,989.38
2018-04-30T05:35:03.997Z,989.35
2018-04-30T05:35:44.460Z,989.38
2018-04-30T05:36:24.903Z,989.35
2018-04-30T05:37:05.628Z,989.35
2018-04-30T05:37:46.001Z,989.35
2018-04-30T05:38:26.633Z,989.36
2018-04-30T05:39:11.233Z,989.33
2018-04-30T05:39:49.273Z,989.35
2018-04-30T05:40:29.977Z,989.3
2018-04-30T05:41:10.515Z,989.31
2018-04-30T05:41:51.840Z,989.31
2018-04-30T05:42:32.108Z,989.33
2018-04-30T05:43:13.096Z,989.33
2018-04-30T05:43:53.631Z,989.33
2018-04-30T05:44:33.975Z,989.33
2018-04-30T05:45:14.489Z,989.33
2018-04-30T05:45:55.003Z,989.34
2018-04-30T05:46:36.378Z,989.32
2018-04-30T05:47:15.965Z,989.29
2018-04-30T05:47:56.422Z,989.27
2018-04-30T05:48:36.689Z,989.25
2018-04-30T05:49:17.539Z,989.23
2018-04-30T05:49:58.088Z,989.22
2018-04-30T05:50:38.821Z,989.17
2018-04-30T05:51:19.191Z,989.23
2018-04-30T05:52:00.560Z,989.24
2018-04-30T05:52:40.202Z,989.24
2018-04-30T05:53:20.355Z,989.22
2018-04-30T05:54:00.800Z,989.25
2018-04-30T05:54:41.155Z,989.25
2018-04-30T05:55:21.897Z,989.25
2018-04-30T05:56:02.215Z,989.22
2018-04-30T05:56:43.517Z,989.21
2018-04-30T05:57:24.050Z,989.2
2018-04-30T05:58:04.356Z,989.21
2018-04-30T05:58:46.476Z,989.25
2018-04-30T05:59:26.667Z,989.3
2018-04-30T06:00:08.249Z,989.33
2018-04-30T06:00:48.997Z,989.4
2018-04-30T06:01:29.524Z,989.44
2018-04-30T06:02:10.198Z,989.48
2018-04-30T06:02:50.314Z,989.58
2018-04-30T06:03:30.713Z,989.61
2018-04-30T06:04:11.409Z,989.65
2018-04-30T06:04:51.576Z,989.66
2018-04-30T06:05:31.977Z,989.68
2018-04-30T06:06:12.365Z,989.71
2018-04-30T06:06:52.812Z,989.78
2018-04-30T06:07:33.299Z,989.79
2018-04-30T06:08:13.738Z,989.77
2018-04-30T06:08:54.117Z,989.74
2018-04-30T06:09:34.619Z,989.75
2018-04-30T06:10:14.943Z,989.75
2018-04-30T06:10:55.711Z,989.74
2018-04-30T06:11:36.187Z,989.75
2018-04-30T06:12:18.186Z,989.71
2018-04-30T06:13:00.374Z,989.69
2018-04-30T06:13:41.271Z,989.73
2018-04-30T06:14:22.820Z,989.71
2018-04-30T06:15:03.145Z,989.75
2018-04-30T06:15:44.903Z,989.73
2018-04-30T06:16:28.991Z,989.74
2018-04-30T06:17:10.194Z,989.75
2018-04-30T06:17:52.650Z,989.74
2018-04-30T06:18:35.903Z,989.8
2018-04-30T06:19:17.874Z,989.79
2018-04-30T06:19:59.465Z,989.83
2018-04-30T06:20:40.165Z,989.77
2018-04-30T06:21:21.781Z,989.91
2018-04-30T06:22:02.645Z,990.02
2018-04-30T06:22:44.529Z,989.88
2018-04-30T06:23:25.291Z,989.97
2018-04-30T06:24:06.080Z,990.04
2018-04-30T06:24:46.790Z,990
2018-04-30T06:25:27.656Z,990.13
2018-04-30T06:26:08.211Z,990.13
2018-04-30T06:26:49.714Z,990.09
2018-04-30T06:27:30.944Z,990.14
2018-04-30T06:28:16.907Z,990.14
2018-04-30T06:28:55.793Z,990.15
2018-04-30T06:29:40.348Z,990.13
2018-04-30T06:30:20.591Z,990.14
2018-04-30T06:31:01.328Z,990.09
2018-04-30T06:31:44.975Z,990.13
2018-04-30T06:34:58.589Z,989.97
2018-04-30T06:35:48.898Z,989.99
2018-04-30T06:39:00.320Z,989.99
2018-04-30T06:43:30.710Z,989.82
2018-04-30T06:49:16.878Z,989.94
2018-04-30T06:49:57.072Z,989.95
2018-04-30T06:50:37.527Z,989.92
2018-04-30T06:51:19.752Z,989.88
2018-04-30T06:52:00.596Z,989.93
2018-04-30T06:52:42.811Z,989.89
2018-04-30T06:59:14.596Z,990.06
2018-04-30T07:01:18.996Z,989.97
2018-04-30T07:02:06.689Z,990.07
2018-04-30T07:04:10.125Z,990.1
2018-04-30T07:06:46.144Z,990.07
2018-04-30T07:07:31.473Z,990.11
2018-04-30T07:08:11.784Z,990.15
2018-04-30T07:08:52.198Z,990.1
2018-04-30T07:09:32.809Z,990.12
2018-04-30T07:10:14.081Z,990.09
2018-04-30T07:10:54.470Z,990.15
2018-04-30T07:11:34.985Z,990.16
2018-04-30T07:12:15.435Z,990.16
2018-04-30T07:12:55.918Z,990.17
2018-04-30T07:13:36.294Z,990.23
2018-04-30T07:14:17.478Z,990.27
2018-04-30T07:14:57.794Z,990.25
2018-04-30T07:17:36.557Z,990.3
2018-04-30T07:18:12.890Z,990.3
2018-04-30T07:18:53.337Z,990.31
2018-04-30T07:19:33.782Z,990.28
2018-04-30T07:20:14.369Z,990.31
2018-04-30T07:20:54.928Z,990.37
2018-04-30T07:21:35.401Z,990.3
2018-04-30T07:22:16.122Z,990.29
2018-04-30T07:22:56.606Z,990.34
2018-04-30T07:23:37.076Z,990.28
2018-04-30T07:24:17.491Z,990.28
2018-04-30T07:24:58.687Z,990.27
2018-04-30T07:25:39.093Z,990.21
2018-04-30T07:26:19.531Z,990.27
2018-04-30T07:27:00.983Z,990.3
2018-04-30T07:27:41.448Z,990.33
2018-04-30T07:28:21.940Z,990.32
2018-04-30T07:29:02.149Z,990.38
2018-04-30T07:29:42.964Z,990.34
2018-04-30T07:30:23.352Z,990.38
2018-04-30T07:31:05.542Z,990.43
2018-04-30T07:31:46.119Z,990.33
2018-04-30T07:32:26.724Z,990.3
2018-04-30T07:33:07.840Z,990.3
2018-04-30T07:33:48.677Z,990.32
2018-04-30T07:34:29.558Z,990.33
2018-04-30T07:35:10.340Z,990.29
2018-04-30T07:35:52.767Z,990.34
2018-04-30T07:36:33.126Z,990.33
2018-04-30T07:37:14.167Z,990.33
2018-04-30T07:37:55.383Z,990.34
2018-04-30T07:38:35.734Z,990.32
2018-04-30T07:39:16.143Z,990.31
2018-04-30T07:39:57.458Z,990.29
2018-04-30T07:40:37.941Z,990.2
2018-04-30T07:41:18.885Z,990.22
2018-04-30T07:41:59.514Z,990.21
2018-04-30T07:42:39.917Z,990.09
2018-04-30T07:43:20.856Z,990.16
2018-04-30T07:44:01.566Z,990.08
2018-04-30T07:44:42.081Z,990.05
2018-04-30T07:45:23.329Z,990.05
2018-04-30T07:46:04.253Z,990.04
2018-04-30T07:46:45.550Z,990.01
2018-04-30T07:47:26.396Z,989.99
2018-04-30T07:48:07.117Z,990.06
2018-04-30T07:48:47.603Z,990.06
2018-04-30T07:49:28.496Z,990.05
2018-04-30T07:50:09.237Z,990.06
2018-04-30T07:50:49.566Z,990.13
2018-04-30T07:51:30.571Z,990.22
2018-04-30T07:52:11.571Z,990.23
2018-04-30T07:52:52.083Z,990.28
2018-04-30T07:53:32.469Z,990.25
2018-04-30T07:54:13.439Z,990.28
2018-04-30T07:54:54.142Z,990.33
2018-04-30T07:55:34.948Z,990.35
2018-04-30T07:56:15.378Z,990.35
2018-04-30T07:56:58.454Z,990.32
2018-04-30T07:57:38.684Z,990.33
2018-04-30T07:58:19.137Z,990.34
2018-04-30T07:59:00.162Z,990.33
2018-04-30T07:59:40.721Z,990.37
2018-04-30T08:00:25.287Z,990.33
2018-04-30T08:01:05.662Z,990.47
2018-04-30T08:01:46.231Z,990.4
2018-04-30T08:02:27.186Z,990.43
2018-04-30T08:03:08.184Z,990.41
2018-04-30T08:03:48.537Z,990.36
2018-04-30T08:04:29.522Z,990.37
2018-04-30T08:05:11.700Z,990.39
2018-04-30T08:05:54.071Z,990.43
2018-04-30T08:06:33.408Z,990.46
2018-04-30T08:07:14.018Z,990.45
2018-04-30T08:07:54.624Z,990.41
2018-04-30T08:08:35.173Z,990.45
2018-04-30T08:09:15.696Z,990.47
2018-04-30T08:09:56.614Z,990.41
2018-04-30T08:10:37.203Z,990.37
2018-04-30T08:11:18.204Z,990.41
2018-04-30T08:11:58.836Z,990.38
2018-04-30T08:12:39.467Z,990.45
2018-04-30T08:13:20.678Z,990.42
2018-04-30T08:14:01.320Z,990.33
2018-04-30T08:14:43.815Z,990.35
2018-04-30T08:15:24.397Z,990.22
2018-04-30T08:16:05.302Z,990.25
2018-04-30T08:16:45.881Z,990.24
2018-04-30T08:19:18.785Z,990.32
2018-04-30T08:20:01.922Z,990.3
2018-04-30T08:20:43.649Z,990.38
2018-04-30T08:21:23.933Z,990.44
2018-04-30T08:22:04.063Z,990.43
2018-04-30T08:22:44.750Z,990.55
2018-04-30T08:23:25.627Z,990.47
2018-04-30T08:24:05.828Z,990.47
2018-04-30T08:24:46.346Z,990.37
2018-04-30T08:25:27.068Z,990.43
2018-04-30T08:26:07.778Z,990.54
2018-04-30T08:26:48.459Z,990.37
2018-04-30T08:27:28.693Z,990.46
2018-04-30T08:28:09.083Z,990.49
2018-04-30T08:28:49.693Z,990.47
2018-04-30T08:29:30.234Z,990.5
2018-04-30T08:30:10.651Z,990.55
2018-04-30T08:30:51.222Z,990.61
2018-04-30T08:31:31.957Z,990.44
2018-04-30T08:32:12.773Z,990.48
2018-04-30T08:32:53.208Z,990.48
2018-04-30T08:33:33.884Z,990.47
2018-04-30T08:34:15.996Z,990.66
2018-04-30T08:34:55.950Z,990.54
2018-04-30T08:35:36.396Z,990.61
2018-04-30T08:36:17.153Z,990.76
2018-04-30T08:36:59.064Z,990.65
2018-04-30T08:37:39.418Z,990.71
2018-04-30T08:38:20.603Z,990.72
2018-04-30T08:39:00.918Z,990.71
2018-04-30T08:39:41.400Z,990.68
2018-04-30T08:40:22.210Z,990.71
2018-04-30T08:41:03.331Z,990.76
2018-04-30T08:41:44.966Z,990.73
2018-04-30T08:42:25.740Z,990.72
2018-04-30T08:43:06.499Z,990.71
2018-04-30T08:46:07.937Z,990.76
2018-04-30T08:46:49.350Z,990.74
2018-04-30T08:47:29.968Z,990.83
2018-04-30T08:48:10.217Z,990.77
2018-04-30T08:48:51.067Z,990.76
2018-04-30T08:49:31.785Z,990.77
2018-04-30T08:50:12.718Z,990.79
2018-04-30T08:50:54.548Z,990.76
2018-04-30T08:51:34.637Z,990.74
2018-04-30T08:52:16.143Z,990.86
2018-04-30T08:52:56.907Z,990.82
2018-04-30T08:53:37.417Z,990.85
2018-04-30T08:54:19.493Z,990.87
2018-04-30T08:54:59.625Z,990.89
2018-04-30T08:55:40.231Z,990.85
2018-04-30T08:56:20.915Z,990.93
2018-04-30T08:57:02.418Z,990.95
2018-04-30T08:57:42.818Z,990.9
2018-04-30T08:58:24.418Z,990.98
2018-04-30T08:59:04.692Z,990.99
2018-04-30T08:59:45.272Z,990.94
2018-04-30T09:00:25.890Z,990.94
2018-04-30T09:01:06.786Z,990.89
2018-04-30T09:01:47.152Z,990.85
2018-04-30T09:02:28.400Z,990.84
2018-04-30T09:03:08.367Z,990.83
2018-04-30T09:03:50.498Z,990.88
2018-04-30T09:04:30.957Z,990.98
2018-04-30T09:05:12.024Z,990.87
2018-04-30T09:05:52.036Z,990.86
2018-04-30T09:06:32.487Z,990.87
2018-04-30T09:07:12.836Z,990.91
2018-04-30T09:07:55.381Z,990.92
2018-04-30T09:08:36.468Z,990.93
2018-04-30T09:09:20.157Z,990.97
2018-04-30T09:10:00.379Z,990.93
2018-04-30T09:10:42.726Z,990.9
2018-04-30T09:11:22.734Z,990.93
2018-04-30T09:12:03.143Z,990.92
2018-04-30T09:12:43.520Z,990.96
2018-04-30T09:13:23.911Z,991.03
2018-04-30T09:14:05.152Z,991.02
2018-04-30T09:14:45.887Z,990.98
2018-04-30T09:15:27.803Z,990.99
2018-04-30T09:16:08.143Z,990.97
2018-04-30T09:16:49.046Z,990.96
2018-04-30T09:17:29.572Z,990.97
2018-04-30T09:18:09.967Z,990.95
2018-04-30T09:18:50.564Z,990.99
2018-04-30T09:19:31.024Z,990.95
2018-04-30T09:20:12.667Z,990.96
2018-04-30T09:20:53.027Z,990.99
2018-04-30T09:21:32.693Z,991.03
2018-04-30T09:22:15.975Z,990.98
2018-04-30T09:22:56.287Z,990.99
2018-04-30T09:23:36.656Z,990.99
2018-04-30T09:24:17.271Z,990.97
2018-04-30T09:24:57.498Z,990.97
2018-04-30T09:25:37.978Z,990.93
2018-04-30T09:26:18.436Z,991.01
2018-04-30T09:26:59.714Z,990.94
2018-04-30T09:27:40.105Z,990.92
2018-04-30T09:28:21.415Z,990.98
2018-04-30T09:29:02.051Z,990.95
2018-04-30T09:29:42.646Z,990.99
2018-04-30T09:30:23.432Z,990.99
2018-04-30T09:31:18.904Z,990.98
2018-04-30T09:31:59.504Z,990.97
2018-04-30T09:32:40.312Z,991
2018-04-30T09:33:21.376Z,990.99
2018-04-30T09:34:02.523Z,991.03
2018-04-30T09:34:43.181Z,991.04
2018-04-30T09:35:23.509Z,991.05
2018-04-30T09:36:03.980Z,991.02
2018-04-30T09:36:45.440Z,990.97
2018-04-30T09:37:25.909Z,990.98
2018-04-30T09:38:06.801Z,990.99
2018-04-30T09:38:47.189Z,991
2018-04-30T09:39:27.600Z,990.95
2018-04-30T09:40:08.387Z,991.02
2018-04-30T09:40:49.911Z,990.95
2018-04-30T09:41:30.078Z,991
2018-04-30T09:42:10.640Z,990.99
2018-04-30T09:42:51.839Z,991.04
2018-04-30T09:43:32.647Z,991.02
2018-04-30T09:44:12.840Z,991.01
2018-04-30T09:44:53.924Z,991.07
2018-04-30T09:45:35.654Z,991.12
2018-04-30T09:46:15.879Z,991.01
2018-04-30T09:46:59.826Z,991.07
2018-04-30T09:47:40.654Z,991.06
2018-04-30T09:48:21.160Z,991.06
2018-04-30T09:49:01.590Z,991.08
2018-04-30T09:49:42.067Z,991.08
2018-04-30T09:50:23.674Z,991.07
2018-04-30T09:51:05.875Z,991.07
2018-04-30T09:51:46.291Z,991.03
2018-04-30T09:52:26.679Z,991.03
2018-04-30T09:53:07.240Z,990.99
2018-04-30T09:53:48.123Z,990.98
2018-04-30T09:54:30.905Z,991.03
2018-04-30T09:55:11.820Z,991.01
2018-04-30T09:55:52.741Z,991.12
2018-04-30T09:56:33.520Z,991.1
2018-04-30T09:57:14.455Z,991.12
2018-04-30T09:59:31.479Z,991.12
2018-04-30T10:01:32.707Z,991.11
2018-04-30T10:02:13.494Z,991.13
2018-04-30T10:02:54.046Z,991.11
2018-04-30T10:03:34.575Z,991.11
2018-04-30T10:04:14.937Z,991.1
2018-04-30T10:43:12.424Z,991.17
2018-04-30T10:43:54.835Z,991.21
2018-04-30T10:44:35.330Z,991.17
2018-04-30T10:45:16.298Z,991.15
2018-04-30T10:45:56.694Z,991.2
2018-04-30T10:46:38.061Z,991.15
2018-04-30T10:47:18.472Z,991.15
2018-04-30T10:47:59.731Z,991.22
2018-04-30T10:48:40.019Z,991.21
2018-04-30T10:49:22.022Z,991.24
2018-04-30T10:50:02.702Z,991.16
2018-04-30T10:50:43.112Z,991.23
2018-04-30T10:51:24.862Z,991.21
2018-04-30T10:52:05.102Z,991.25
2018-04-30T10:52:45.676Z,991.24
2018-04-30T10:53:26.766Z,991.23
2018-04-30T10:54:07.217Z,991.21
2018-04-30T10:54:48.165Z,991.24
2018-04-30T10:55:29.007Z,991.23
2018-04-30T10:56:09.968Z,991.18
2018-04-30T10:56:51.782Z,991.22
2018-04-30T10:57:32.608Z,991.16
2018-04-30T10:58:13.069Z,991.11
2018-04-30T10:58:53.705Z,991.26
2018-04-30T10:59:34.552Z,991.26
2018-04-30T11:00:15.968Z,991.27
2018-04-30T11:00:56.541Z,991.32
2018-04-30T11:01:37.048Z,991.32
2018-04-30T11:02:17.420Z,991.29
2018-04-30T11:02:57.847Z,991.27
2018-04-30T11:03:38.502Z,991.17
2018-04-30T11:04:18.991Z,991.17
2018-04-30T11:04:59.922Z,991.15
2018-04-30T11:05:40.272Z,991.19
2018-04-30T11:06:22.765Z,991.2
2018-04-30T11:07:03.634Z,991.06
2018-04-30T11:07:43.973Z,991.17
2018-04-30T11:08:24.453Z,991.05
2018-04-30T11:09:05.491Z,991.05
2018-04-30T11:09:47.174Z,990.98
2018-04-30T11:10:28.504Z,991.04
2018-04-30T11:11:09.236Z,990.98
2018-04-30T11:11:50.170Z,991.01
2018-04-30T11:12:31.498Z,991.02
2018-04-30T11:13:11.250Z,991.02
2018-04-30T11:15:52.955Z,991.01
2018-04-30T11:16:36.173Z,991.03
2018-04-30T11:17:16.797Z,990.99
2018-04-30T11:17:58.042Z,991.06
2018-04-30T11:18:39.231Z,991.03
2018-04-30T11:19:19.859Z,991.03
2018-04-30T11:20:00.617Z,991.05
2018-04-30T11:20:41.981Z,991.04
2018-04-30T11:21:23.154Z,991.18
2018-04-30T11:22:03.509Z,991.15
2018-04-30T11:22:44.369Z,991.03
2018-04-30T11:23:27.685Z,991.04
2018-04-30T11:24:09.582Z,991.06
2018-04-30T11:24:50.059Z,991.21
2018-04-30T11:25:32.291Z,991.08
2018-04-30T11:26:13.126Z,991.11
2018-04-30T11:26:53.880Z,991.11
2018-04-30T11:27:34.431Z,991.13
2018-04-30T11:28:15.476Z,991.1
2018-04-30T11:28:56.374Z,991.09
2018-04-30T11:29:36.795Z,991.05
2018-04-30T11:30:17.675Z,991.23
2018-04-30T11:30:58.267Z,991.16
2018-04-30T11:31:38.958Z,991.25
2018-04-30T11:32:20.530Z,991.5
2018-04-30T11:33:01.309Z,991.56
2018-04-30T11:33:42.799Z,991.38
2018-04-30T11:34:24.225Z,991.45
2018-04-30T11:35:05.179Z,991.56
2018-04-30T11:35:45.736Z,991.25
2018-04-30T11:36:26.136Z,991.49
2018-04-30T11:44:38.742Z,991.25
2018-04-30T11:45:18.531Z,991.32
2018-04-30T11:45:59.916Z,991.24
2018-04-30T11:46:40.271Z,991.23
2018-04-30T11:47:21.720Z,991.21
2018-04-30T11:48:02.203Z,991.29
2018-04-30T11:48:42.962Z,991.33
2018-04-30T11:49:23.785Z,991.31
2018-04-30T11:50:04.708Z,991.21
2018-04-30T11:50:45.504Z,991.36
2018-04-30T11:51:26.272Z,991.37
2018-04-30T11:52:06.604Z,991.32
2018-04-30T11:52:47.242Z,991.29
2018-04-30T11:53:27.673Z,991.32
2018-04-30T11:54:08.662Z,991.35
2018-04-30T11:54:49.532Z,991.38
2018-04-30T11:55:29.974Z,991.38
2018-04-30T11:56:11.778Z,991.34
2018-04-30T11:56:52.789Z,991.36
2018-04-30T11:57:33.279Z,991.39
2018-04-30T11:58:13.887Z,991.41
2018-04-30T11:58:57.861Z,991.32
2018-04-30T11:59:38.480Z,991.39
2018-04-30T12:00:19.977Z,991.35
2018-04-30T12:01:00.025Z,991.48
2018-04-30T12:01:40.869Z,991.42
2018-04-30T12:02:23.214Z,991.43
2018-04-30T12:03:03.654Z,991.41
2018-04-30T12:03:44.665Z,991.42
2018-04-30T12:04:26.268Z,991.51
2018-04-30T12:05:05.867Z,991.49
2018-04-30T12:05:47.048Z,991.58
2018-04-30T12:06:27.925Z,991.61
2018-04-30T12:07:08.945Z,991.54
2018-04-30T12:07:49.545Z,991.67
2018-04-30T12:08:30.185Z,991.66
2018-04-30T12:09:10.750Z,991.68
2018-04-30T12:09:52.333Z,991.67
2018-04-30T12:10:32.745Z,991.68
2018-04-30T12:11:13.731Z,991.77
2018-04-30T12:11:54.659Z,991.86
2018-04-30T12:12:38.187Z,991.85
2018-04-30T12:13:21.146Z,991.81
2018-04-30T12:14:02.378Z,991.91
2018-04-30T12:14:43.448Z,991.79
2018-04-30T12:15:24.024Z,991.77
2018-04-30T12:16:04.574Z,991.83
2018-04-30T12:16:45.059Z,991.79
2018-04-30T12:17:25.468Z,991.82
2018-04-30T12:18:05.956Z,991.85
2018-04-30T12:18:46.548Z,991.98
2018-04-30T12:19:27.110Z,991.73
2018-04-30T12:20:07.632Z,991.61
2018-04-30T12:20:48.104Z,991.85